sensor_id;sensor_type;location;lat;lon;timestamp;pressure;altitude;pressure_sealevel;temperature;humidity
9746;BME280;4912;50.836;12.958;2023-04-01T00:01:46;96081.28;;;10.13;100.00
9746;BME280;4912;50.836;12.958;2023-04-01T00:04:17;96085.31;;;10.18;100.00
9746;BME280;4912;50.836;12.958;2023-04-01T00:06:48;96089.31;;;10.28;100.00
9746;BME280;4912;50.836;12.958;2023-04-01T00:09:21;96087.75;;;10.38;100.00
9746;BME280;4912;50.836;12.958;2023-04-01T00:11:55;96086.28;;;10.26;100.00
9746;BME280;4912;50.836;12.958;2023-04-01T00:14:26;96090.06;;;10.29;100.00
9746;BME280;4912;50.836;12.958;2023-04-01T00:16:57;96083.50;;;10.32;100.00
9746;BME280;4912;50.836;12.958;2023-04-01T00:19:28;96090.03;;;10.40;100.00
9746;BME280;4912;50.836;12.958;2023-04-01T00:21:59;96086.78;;;10.30;100.00
9746;BME280;4912;50.836;12.958;2023-04-01T00:24:32;96081.44;;;10.43;100.00
9746;BME280;4912;50.836;12.958;2023-04-01T00:27:03;96081.72;;;10.40;100.00
9746;BME280;4912;50.836;12.958;2023-04-01T00:29:35;96090.03;;;10.40;100.00
9746;BME280;4912;50.836;12.958;2023-04-01T00:32:05;96095.56;;;10.40;100.00
9746;BME280;4912;50.836;12.958;2023-04-01T00:34:36;96093.03;;;10.42;100.00
9746;BME280;4912;50.836;12.958;2023-04-01T00:37:07;96084.22;;;10.43;100.00
9746;BME280;4912;50.836;12.958;2023-04-01T00:39:41;96082.72;;;10.42;100.00
9746;BME280;4912;50.836;12.958;2023-04-01T00:42:11;96084.97;;;10.44;100.00
9746;BME280;4912;50.836;12.958;2023-04-01T00:44:42;96082.94;;;10.50;100.00
9746;BME280;4912;50.836;12.958;2023-04-01T00:47:14;96079.72;;;10.40;100.00
9746;BME280;4912;50.836;12.958;2023-04-01T00:49:46;96084.75;;;10.42;100.00
9746;BME280;4912;50.836;12.958;2023-04-01T00:52:23;96078.16;;;10.50;100.00
9746;BME280;4912;50.836;12.958;2023-04-01T00:54:59;96080.69;;;10.43;100.00
9746;BME280;4912;50.836;12.958;2023-04-01T00:57:35;96077.41;;;10.50;100.00
9746;BME280;4912;50.836;12.958;2023-04-01T01:00:10;96082.41;;;10.57;100.00
9746;BME280;4912;50.836;12.958;2023-04-01T01:02:43;96082.72;;;10.48;100.00
9746;BME280;4912;50.836;12.958;2023-04-01T01:05:15;96082.19;;;10.49;100.00
9746;BME280;4912;50.836;12.958;2023-04-01T01:07:56;96088.47;;;10.50;100.00
9746;BME280;4912;50.836;12.958;2023-04-01T01:10:35;96081.97;;;10.42;100.00
9746;BME280;4912;50.836;12.958;2023-04-01T01:13:11;96075.91;;;10.49;100.00
9746;BME280;4912;50.836;12.958;2023-04-01T01:15:50;96084.72;;;10.47;100.00
9746;BME280;4912;50.836;12.958;2023-04-01T01:18:29;96072.41;;;10.48;100.00
9746;BME280;4912;50.836;12.958;2023-04-01T01:24:33;96072.91;;;10.47;100.00
9746;BME280;4912;50.836;12.958;2023-04-01T01:27:24;96078.47;;;10.36;100.00
9746;BME280;4912;50.836;12.958;2023-04-01T01:30:12;96066.66;;;10.41;100.00
9746;BME280;4912;50.836;12.958;2023-04-01T01:33:09;96068.94;;;10.37;100.00
9746;BME280;4912;50.836;12.958;2023-04-01T01:35:59;96070.41;;;10.43;100.00
9746;BME280;4912;50.836;12.958;2023-04-01T01:38:34;96075.72;;;10.36;100.00
9746;BME280;4912;50.836;12.958;2023-04-01T01:41:07;96075.22;;;10.32;100.00
9746;BME280;4912;50.836;12.958;2023-04-01T01:43:40;96070.47;;;10.26;100.00
9746;BME280;4912;50.836;12.958;2023-04-01T01:46:17;96071.97;;;10.27;100.00
9746;BME280;4912;50.836;12.958;2023-04-01T01:48:50;96067.94;;;10.29;100.00
9746;BME280;4912;50.836;12.958;2023-04-01T01:51:25;96065.16;;;10.34;100.00
9746;BME280;4912;50.836;12.958;2023-04-01T01:53:57;96073.72;;;10.36;100.00
9746;BME280;4912;50.836;12.958;2023-04-01T01:56:29;96066.16;;;10.37;100.00
9746;BME280;4912;50.836;12.958;2023-04-01T01:59:03;96075.44;;;10.39;100.00
9746;BME280;4912;50.836;12.958;2023-04-01T02:01:41;96067.44;;;10.36;100.00
9746;BME280;4912;50.836;12.958;2023-04-01T02:04:14;96068.66;;;10.40;100.00
9746;BME280;4912;50.836;12.958;2023-04-01T02:06:52;96064.91;;;10.32;100.00
9746;BME280;4912;50.836;12.958;2023-04-01T02:09:26;96070.69;;;10.34;100.00
9746;BME280;4912;50.836;12.958;2023-04-01T02:11:59;96063.94;;;10.30;100.00
9746;BME280;4912;50.836;12.958;2023-04-01T02:14:41;96071.69;;;10.31;100.00
9746;BME280;4912;50.836;12.958;2023-04-01T02:17:16;96070.69;;;10.34;100.00
9746;BME280;4912;50.836;12.958;2023-04-01T02:19:53;96071.44;;;10.35;100.00
9746;BME280;4912;50.836;12.958;2023-04-01T02:22:32;96068.94;;;10.37;100.00
9746;BME280;4912;50.836;12.958;2023-04-01T02:25:07;96071.69;;;10.37;100.00
9746;BME280;4912;50.836;12.958;2023-04-01T02:27:40;96076.97;;;10.35;100.00
9746;BME280;4912;50.836;12.958;2023-04-01T02:30:14;96063.13;;;10.40;100.00
9746;BME280;4912;50.836;12.958;2023-04-01T02:32:46;96073.44;;;10.40;100.00
9746;BME280;4912;50.836;12.958;2023-04-01T02:35:18;96069.66;;;10.48;100.00
9746;BME280;4912;50.836;12.958;2023-04-01T02:37:53;96066.84;;;10.54;100.00
9746;BME280;4912;50.836;12.958;2023-04-01T02:40:24;96068.31;;;10.55;99.65
9746;BME280;4912;50.836;12.958;2023-04-01T02:42:54;96065.09;;;10.51;99.13
9746;BME280;4912;50.836;12.958;2023-04-01T02:45:25;96063.06;;;10.51;98.70
9746;BME280;4912;50.836;12.958;2023-04-01T02:47:56;96068.09;;;10.53;98.31
9746;BME280;4912;50.836;12.958;2023-04-01T02:50:27;96078.88;;;10.56;97.73
9746;BME280;4912;50.836;12.958;2023-04-01T02:53:00;96074.63;;;10.55;96.97
9746;BME280;4912;50.836;12.958;2023-04-01T02:55:33;96080.44;;;10.52;97.11
9746;BME280;4912;50.836;12.958;2023-04-01T02:58:04;96080.44;;;10.52;96.17
9746;BME280;4912;50.836;12.958;2023-04-01T03:00:35;96082.72;;;10.42;97.26
9746;BME280;4912;50.836;12.958;2023-04-01T03:03:05;96068.31;;;10.55;96.27
9746;BME280;4912;50.836;12.958;2023-04-01T03:05:36;96076.41;;;10.53;96.59
9746;BME280;4912;50.836;12.958;2023-04-01T03:08:09;96079.91;;;10.59;95.80
9746;BME280;4912;50.836;12.958;2023-04-01T03:10:40;96075.38;;;10.56;95.85
9746;BME280;4912;50.836;12.958;2023-04-01T03:13:11;96081.44;;;10.49;95.96
9746;BME280;4912;50.836;12.958;2023-04-01T03:15:42;96084.72;;;10.47;95.61
9746;BME280;4912;50.836;12.958;2023-04-01T03:18:13;96081.69;;;10.45;95.24
9746;BME280;4912;50.836;12.958;2023-04-01T03:20:44;96085.47;;;10.48;94.48
9746;BME280;4912;50.836;12.958;2023-04-01T03:23:18;96084.97;;;10.44;95.48
9746;BME280;4912;50.836;12.958;2023-04-01T03:25:51;96079.69;;;10.46;95.38
9746;BME280;4912;50.836;12.958;2023-04-01T03:28:21;96083.16;;;10.57;94.89
9746;BME280;4912;50.836;12.958;2023-04-01T03:30:52;96090.22;;;10.53;94.56
9746;BME280;4912;50.836;12.958;2023-04-01T03:33:23;96085.19;;;10.51;94.70
9746;BME280;4912;50.836;12.958;2023-04-01T03:35:53;96093.78;;;10.48;95.18
9746;BME280;4912;50.836;12.958;2023-04-01T03:38:27;96086.22;;;10.43;95.87
9746;BME280;4912;50.836;12.958;2023-04-01T03:40:57;96094.03;;;10.39;96.04
9746;BME280;4912;50.836;12.958;2023-04-01T03:43:28;96098.28;;;10.45;96.84
9746;BME280;4912;50.836;12.958;2023-04-01T03:45:59;96092.03;;;10.39;97.43
9746;BME280;4912;50.836;12.958;2023-04-01T03:48:29;96089.53;;;10.36;96.56
9746;BME280;4912;50.836;12.958;2023-04-01T03:51:00;96095.81;;;10.36;97.40
9746;BME280;4912;50.836;12.958;2023-04-01T03:53:33;96095.84;;;10.31;98.00
9746;BME280;4912;50.836;12.958;2023-04-01T03:56:06;96095.56;;;10.40;98.19
9746;BME280;4912;50.836;12.958;2023-04-01T03:58:38;96098.81;;;10.38;97.36
9746;BME280;4912;50.836;12.958;2023-04-01T04:01:16;96099.59;;;10.33;98.22
9746;BME280;4912;50.836;12.958;2023-04-01T04:03:51;96106.91;;;10.31;98.90
9746;BME280;4912;50.836;12.958;2023-04-01T04:06:23;96104.63;;;10.29;98.93
9746;BME280;4912;50.836;12.958;2023-04-01T04:08:57;96100.09;;;10.26;99.36
9746;BME280;4912;50.836;12.958;2023-04-01T04:11:30;96100.88;;;10.26;99.42
9746;BME280;4912;50.836;12.958;2023-04-01T04:14:02;96104.38;;;10.27;99.99
9746;BME280;4912;50.836;12.958;2023-04-01T04:16:34;96097.31;;;10.32;99.73
9746;BME280;4912;50.836;12.958;2023-04-01T04:19:09;96116.69;;;10.26;100.00
9746;BME280;4912;50.836;12.958;2023-04-01T04:21:40;96112.16;;;10.29;100.00
9746;BME280;4912;50.836;12.958;2023-04-01T04:24:14;96113.69;;;10.24;100.00
9746;BME280;4912;50.836;12.958;2023-04-01T04:26:58;96114.19;;;10.22;100.00
9746;BME280;4912;50.836;12.958;2023-04-01T04:29:29;96115.19;;;10.25;100.00
9746;BME280;4912;50.836;12.958;2023-04-01T04:32:00;96127.53;;;10.18;100.00
9746;BME280;4912;50.836;12.958;2023-04-01T04:34:31;96131.78;;;10.08;100.00
9746;BME280;4912;50.836;12.958;2023-04-01T04:37:02;96117.19;;;10.13;100.00
9746;BME280;4912;50.836;12.958;2023-04-01T04:39:38;96125.28;;;10.17;100.00
9746;BME280;4912;50.836;12.958;2023-04-01T04:42:08;96127.25;;;10.11;100.00
9746;BME280;4912;50.836;12.958;2023-04-01T04:44:39;96124.75;;;10.07;100.00
9746;BME280;4912;50.836;12.958;2023-04-01T04:47:10;96122.53;;;9.95;100.00
9746;BME280;4912;50.836;12.958;2023-04-01T04:49:40;96123.00;;;9.99;100.00
9746;BME280;4912;50.836;12.958;2023-04-01T04:52:11;96126.03;;;10.06;100.00
9746;BME280;4912;50.836;12.958;2023-04-01T04:54:45;96128.28;;;10.02;100.00
9746;BME280;4912;50.836;12.958;2023-04-01T04:57:15;96124.75;;;10.07;100.00
9746;BME280;4912;50.836;12.958;2023-04-01T04:59:53;96130.28;;;10.18;100.00
9746;BME280;4912;50.836;12.958;2023-04-01T05:02:40;96129.28;;;10.21;99.31
9746;BME280;4912;50.836;12.958;2023-04-01T05:05:10;96127.00;;;10.25;99.66
9746;BME280;4912;50.836;12.958;2023-04-01T05:07:41;96122.47;;;10.34;98.36
9746;BME280;4912;50.836;12.958;2023-04-01T05:10:14;96131.53;;;10.29;96.61
9746;BME280;4912;50.836;12.958;2023-04-01T05:12:45;96130.25;;;10.30;96.48
9746;BME280;4912;50.836;12.958;2023-04-01T05:15:20;96138.81;;;10.26;96.52
9746;BME280;4912;50.836;12.958;2023-04-01T05:17:50;96129.00;;;10.19;96.24
9746;BME280;4912;50.836;12.958;2023-04-01T05:20:21;96144.31;;;10.32;96.21
9746;BME280;4912;50.836;12.958;2023-04-01T05:22:55;96146.09;;;10.29;95.02
9746;BME280;4912;50.836;12.958;2023-04-01T05:25:28;96139.28;;;10.36;95.65
9746;BME280;4912;50.836;12.958;2023-04-01T05:27:59;96138.28;;;10.39;95.54
9746;BME280;4912;50.836;12.958;2023-04-01T05:30:30;96139.50;;;10.49;95.94
9746;BME280;4912;50.836;12.958;2023-04-01T05:33:16;96140.25;;;10.44;95.77
9746;BME280;4912;50.836;12.958;2023-04-01T05:35:47;96137.78;;;10.35;95.72
9746;BME280;4912;50.836;12.958;2023-04-01T05:38:18;96142.25;;;10.49;95.37
9746;BME280;4912;50.836;12.958;2023-04-01T05:40:58;96144.25;;;10.59;94.59
9746;BME280;4912;50.836;12.958;2023-04-01T05:43:36;96148.72;;;10.68;95.33
9746;BME280;4912;50.836;12.958;2023-04-01T05:46:25;96152.03;;;10.55;92.43
9746;BME280;4912;50.836;12.958;2023-04-01T05:49:03;96153.56;;;10.51;92.87
9746;BME280;4912;50.836;12.958;2023-04-01T05:51:34;96147.56;;;10.41;92.51
9746;BME280;4912;50.836;12.958;2023-04-01T05:54:05;96151.31;;;10.44;92.58
9746;BME280;4912;50.836;12.958;2023-04-01T05:56:41;96159.38;;;10.47;92.54
9746;BME280;4912;50.836;12.958;2023-04-01T05:59:15;96150.75;;;10.62;91.63
9746;BME280;4912;50.836;12.958;2023-04-01T06:01:45;96159.78;;;10.68;90.46
9746;BME280;4912;50.836;12.958;2023-04-01T06:04:17;96152.50;;;10.71;90.40
9746;BME280;4912;50.836;12.958;2023-04-01T06:06:48;96157.03;;;10.62;90.01
9746;BME280;4912;50.836;12.958;2023-04-01T06:09:22;96158.28;;;10.67;89.57
9746;BME280;4912;50.836;12.958;2023-04-01T06:12:21;96158.28;;;10.67;88.82
9746;BME280;4912;50.836;12.958;2023-04-01T06:15:19;96169.31;;;10.84;88.00
9746;BME280;4912;50.836;12.958;2023-04-01T06:18:14;96161.22;;;10.86;87.68
9746;BME280;4912;50.836;12.958;2023-04-01T06:21:26;96167.25;;;10.90;87.00
9746;BME280;4912;50.836;12.958;2023-04-01T06:24:20;96164.25;;;10.88;87.05
9746;BME280;4912;50.836;12.958;2023-04-01T06:27:04;96167.50;;;10.92;86.80
9746;BME280;4912;50.836;12.958;2023-04-01T06:30:00;96177.81;;;10.91;85.50
9746;BME280;4912;50.836;12.958;2023-04-01T06:32:51;96166.00;;;10.85;85.24
9746;BME280;4912;50.836;12.958;2023-04-01T06:35:49;96174.84;;;10.84;85.80
9746;BME280;4912;50.836;12.958;2023-04-01T06:45:20;96173.56;;;11.31;82.76
9746;BME280;4912;50.836;12.958;2023-04-01T06:48:33;96183.44;;;11.21;82.70
9746;BME280;4912;50.836;12.958;2023-04-01T06:51:37;96182.72;;;11.15;83.61
9746;BME280;4912;50.836;12.958;2023-04-01T06:54:40;96180.53;;;11.02;85.02
9746;BME280;4912;50.836;12.958;2023-04-01T06:57:41;96191.59;;;11.02;86.57
9746;BME280;4912;50.836;12.958;2023-04-01T07:00:22;96187.84;;;11.00;84.87
9746;BME280;4912;50.836;12.958;2023-04-01T07:03:05;96193.81;;;11.09;85.34
9746;BME280;4912;50.836;12.958;2023-04-01T07:05:43;96195.56;;;11.18;83.33
9746;BME280;4912;50.836;12.958;2023-04-01T07:08:18;96190.97;;;11.26;83.25
9746;BME280;4912;50.836;12.958;2023-04-01T07:10:56;96187.09;;;11.46;83.30
9746;BME280;4912;50.836;12.958;2023-04-01T07:13:53;96183.72;;;11.59;81.98
9746;BME280;4912;50.836;12.958;2023-04-01T07:16:31;96193.22;;;11.74;81.16
9746;BME280;4912;50.836;12.958;2023-04-01T07:19:08;96200.22;;;11.81;78.50
9746;BME280;4912;50.836;12.958;2023-04-01T07:21:58;96195.69;;;11.83;79.25
9746;BME280;4912;50.836;12.958;2023-04-01T07:24:52;96200.69;;;11.85;78.74
9746;BME280;4912;50.836;12.958;2023-04-01T07:27:25;96195.97;;;11.74;78.01
9746;BME280;4912;50.836;12.958;2023-04-01T07:29:56;96195.94;;;11.80;78.55
9746;BME280;4912;50.836;12.958;2023-04-01T07:32:39;96198.88;;;11.93;78.76
9746;BME280;4912;50.836;12.958;2023-04-01T07:35:20;96194.72;;;11.75;79.33
9746;BME280;4912;50.836;12.958;2023-04-01T07:38:07;96192.22;;;12.07;78.90
9746;BME280;4912;50.836;12.958;2023-04-01T07:40:49;96193.66;;;12.14;78.34
9746;BME280;4912;50.836;12.958;2023-04-01T07:43:41;96189.88;;;12.41;77.31
9746;BME280;4912;50.836;12.958;2023-04-01T07:46:48;96198.94;;;12.42;76.65
9746;BME280;4912;50.836;12.958;2023-04-01T07:49:30;96205.63;;;12.27;77.49
9746;BME280;4912;50.836;12.958;2023-04-01T07:52:09;96203.44;;;12.45;77.78
9746;BME280;4912;50.836;12.958;2023-04-01T07:54:49;96204.22;;;12.69;76.94
9746;BME280;4912;50.836;12.958;2023-04-01T07:57:30;96200.66;;;12.93;75.70
9746;BME280;4912;50.836;12.958;2023-04-01T08:00:12;96212.06;;;12.90;75.17
9746;BME280;4912;50.836;12.958;2023-04-01T08:03:08;96216.81;;;12.70;76.83
9746;BME280;4912;50.836;12.958;2023-04-01T08:05:55;96211.25;;;12.70;76.56
9746;BME280;4912;50.836;12.958;2023-04-01T08:08:37;96206.47;;;12.71;76.20
9746;BME280;4912;50.836;12.958;2023-04-01T08:11:32;96207.50;;;12.68;75.92
9746;BME280;4912;50.836;12.958;2023-04-01T08:14:35;96216.63;;;12.39;76.39
9746;BME280;4912;50.836;12.958;2023-04-01T08:17:34;96220.25;;;12.28;76.86
9746;BME280;4912;50.836;12.958;2023-04-01T08:20:22;96224.78;;;12.31;76.32
9746;BME280;4912;50.836;12.958;2023-04-01T08:23:03;96218.22;;;12.28;76.72
9746;BME280;4912;50.836;12.958;2023-04-01T08:25:44;96226.50;;;12.34;75.88
9746;BME280;4912;50.836;12.958;2023-04-01T08:28:24;96224.63;;;12.48;76.00
9746;BME280;4912;50.836;12.958;2023-04-01T08:31:04;96229.81;;;12.57;74.30
9746;BME280;4912;50.836;12.958;2023-04-01T08:33:36;96224.19;;;12.62;74.50
9746;BME280;4912;50.836;12.958;2023-04-01T08:36:15;96224.91;;;12.68;73.38
9746;BME280;4912;50.836;12.958;2023-04-01T08:38:59;96234.38;;;12.54;73.26
9746;BME280;4912;50.836;12.958;2023-04-01T08:41:53;96222.59;;;12.48;74.16
9746;BME280;4912;50.836;12.958;2023-04-01T08:45:03;96221.09;;;12.47;75.50
9746;BME280;4912;50.836;12.958;2023-04-01T08:55:02;96213.75;;;12.74;77.13
9746;BME280;4912;50.836;12.958;2023-04-01T09:01:35;96217.97;;;12.56;72.78
9746;BME280;4912;50.836;12.958;2023-04-01T09:05:18;96227.66;;;12.44;71.42
9746;BME280;4912;50.836;12.958;2023-04-01T09:08:27;96221.09;;;12.47;71.95
9746;BME280;4912;50.836;12.958;2023-04-01T09:11:11;96219.34;;;12.44;71.21
9746;BME280;4912;50.836;12.958;2023-04-01T09:14:10;96222.88;;;12.45;71.46
9746;BME280;4912;50.836;12.958;2023-04-01T09:17:19;96228.13;;;12.48;69.70
9746;BME280;4912;50.836;12.958;2023-04-01T09:23:44;96223.75;;;12.58;69.55
9746;BME280;4912;50.836;12.958;2023-04-01T09:26:37;96229.56;;;12.79;69.89
9746;BME280;4912;50.836;12.958;2023-04-01T09:29:31;96229.91;;;12.94;68.46
9746;BME280;4912;50.836;12.958;2023-04-01T09:32:33;96231.00;;;12.86;67.52
9746;BME280;4912;50.836;12.958;2023-04-01T09:35:38;96243.63;;;12.62;68.53
9746;BME280;4912;50.836;12.958;2023-04-01T09:38:26;96224.44;;;12.64;67.99
9746;BME280;4912;50.836;12.958;2023-04-01T09:41:07;96228.47;;;12.88;67.85
9746;BME280;4912;50.836;12.958;2023-04-01T09:44:10;96223.47;;;13.05;67.06
9746;BME280;4912;50.836;12.958;2023-04-01T09:47:26;96221.53;;;13.24;66.95
9746;BME280;4912;50.836;12.958;2023-04-01T09:50:20;96227.97;;;13.08;65.61
9746;BME280;4912;50.836;12.958;2023-04-01T09:53:02;96224.50;;;13.02;66.18
9746;BME280;4912;50.836;12.958;2023-04-01T09:56:17;96231.81;;;13.29;66.35
9746;BME280;4912;50.836;12.958;2023-04-01T10:03:22;96232.34;;;13.65;66.38
9746;BME280;4912;50.836;12.958;2023-04-01T10:09:53;96248.47;;;13.67;65.42
9746;BME280;4912;50.836;12.958;2023-04-01T10:13:09;96238.34;;;13.69;66.51
9746;BME280;4912;50.836;12.958;2023-04-01T10:16:23;96244.72;;;13.83;66.46
9746;BME280;4912;50.836;12.958;2023-04-01T10:19:26;96242.19;;;13.47;64.28
9746;BME280;4912;50.836;12.958;2023-04-01T10:29:52;96256.88;;;13.61;64.50
9746;BME280;4912;50.836;12.958;2023-04-01T10:46:58;96240.66;;;13.28;64.04
9746;BME280;4912;50.836;12.958;2023-04-01T10:53:21;96239.69;;;13.44;63.46
9746;BME280;4912;50.836;12.958;2023-04-01T10:56:55;96236.31;;;13.51;63.71
9746;BME280;4912;50.836;12.958;2023-04-01T11:00:30;96246.66;;;13.32;63.74
9746;BME280;4912;50.836;12.958;2023-04-01T11:10:46;96233.06;;;13.28;64.42
9746;BME280;4912;50.836;12.958;2023-04-01T11:13:53;96241.09;;;13.50;64.38
9746;BME280;4912;50.836;12.958;2023-04-01T11:17:11;96238.41;;;13.82;63.10
9746;BME280;4912;50.836;12.958;2023-04-01T11:23:22;96243.31;;;14.08;61.80
9746;BME280;4912;50.836;12.958;2023-04-01T11:26:03;96244.53;;;14.13;61.85
9746;BME280;4912;50.836;12.958;2023-04-01T11:29:23;96253.25;;;14.04;61.95
9746;BME280;4912;50.836;12.958;2023-04-01T11:32:50;96247.69;;;14.04;62.29
9746;BME280;4912;50.836;12.958;2023-04-01T11:35:47;96247.69;;;13.85;62.58
9746;BME280;4912;50.836;12.958;2023-04-01T11:38:51;96246.06;;;13.76;63.88
9746;BME280;4912;50.836;12.958;2023-04-01T11:41:52;96265.00;;;13.78;62.59
9746;BME280;4912;50.836;12.958;2023-04-01T11:44:55;96248.53;;;13.61;63.60
9746;BME280;4912;50.836;12.958;2023-04-01T11:47:55;96261.56;;;13.53;63.48
9746;BME280;4912;50.836;12.958;2023-04-01T11:50:44;96264.25;;;13.40;64.68
9746;BME280;4912;50.836;12.958;2023-04-01T11:53:47;96273.69;;;13.50;65.12
9746;BME280;4912;50.836;12.958;2023-04-01T11:56:41;96257.25;;;13.52;65.19
9746;BME280;4912;50.836;12.958;2023-04-01T12:02:31;96260.63;;;13.26;67.16
9746;BME280;4912;50.836;12.958;2023-04-01T12:05:25;96268.72;;;13.24;67.52
9746;BME280;4912;50.836;12.958;2023-04-01T12:08:15;96268.13;;;13.13;67.95
9746;BME280;4912;50.836;12.958;2023-04-01T12:11:02;96275.03;;;13.00;69.12
9746;BME280;4912;50.836;12.958;2023-04-01T12:13:42;96276.69;;;13.09;69.53
9746;BME280;4912;50.836;12.958;2023-04-01T12:16:37;96269.34;;;12.87;72.19
9746;BME280;4912;50.836;12.958;2023-04-01T12:19:19;96271.75;;;12.78;72.71
9746;BME280;4912;50.836;12.958;2023-04-01T12:22:06;96269.59;;;12.89;72.41
9746;BME280;4912;50.836;12.958;2023-04-01T12:24:47;96266.06;;;12.89;71.26
9746;BME280;4912;50.836;12.958;2023-04-01T12:27:39;96269.41;;;12.82;71.75
9746;BME280;4912;50.836;12.958;2023-04-01T12:30:30;96279.00;;;12.81;74.16
9746;BME280;4912;50.836;12.958;2023-04-01T12:33:23;96272.06;;;12.93;76.42
9746;BME280;4912;50.836;12.958;2023-04-01T12:36:13;96277.81;;;13.00;75.51
9746;BME280;4912;50.836;12.958;2023-04-01T12:39:06;96273.47;;;12.81;77.43
9746;BME280;4912;50.836;12.958;2023-04-01T12:41:55;96279.00;;;12.81;77.62
9746;BME280;4912;50.836;12.958;2023-04-01T12:44:44;96278.25;;;12.80;78.64
9746;BME280;4912;50.836;12.958;2023-04-01T12:47:26;96288.72;;;12.93;80.33
9746;BME280;4912;50.836;12.958;2023-04-01T12:50:39;96287.34;;;13.05;78.77
9746;BME280;4912;50.836;12.958;2023-04-01T12:53:33;96291.22;;;12.96;80.23
9746;BME280;4912;50.836;12.958;2023-04-01T12:56:14;96286.94;;;12.95;79.99
9746;BME280;4912;50.836;12.958;2023-04-01T12:59:04;96301.41;;;12.88;80.08
9746;BME280;4912;50.836;12.958;2023-04-01T13:01:59;96302.22;;;12.83;80.08
9746;BME280;4912;50.836;12.958;2023-04-01T13:05:01;96305.88;;;12.67;79.82
9746;BME280;4912;50.836;12.958;2023-04-01T13:08:00;96297.59;;;12.31;81.04
9746;BME280;4912;50.836;12.958;2023-04-01T13:10:59;96299.97;;;12.52;82.79
9746;BME280;4912;50.836;12.958;2023-04-01T13:17:07;96301.22;;;13.05;80.00
9746;BME280;4912;50.836;12.958;2023-04-01T13:19:45;96313.44;;;13.21;79.52
9746;BME280;4912;50.836;12.958;2023-04-01T13:22:49;96307.50;;;13.54;79.08
9746;BME280;4912;50.836;12.958;2023-04-01T13:25:30;96295.03;;;14.17;77.77
9746;BME280;4912;50.836;12.958;2023-04-01T13:28:12;96299.25;;;15.13;73.98
9746;BME280;4912;50.836;12.958;2023-04-01T13:30:51;96300.41;;;17.01;67.55
9746;BME280;4912;50.836;12.958;2023-04-01T13:33:34;96298.31;;;17.94;60.41
9746;BME280;4912;50.836;12.958;2023-04-01T13:36:18;96292.28;;;17.75;59.68
9746;BME280;4912;50.836;12.958;2023-04-01T13:39:02;96299.56;;;17.13;63.31
9746;BME280;4912;50.836;12.958;2023-04-01T13:42:06;96301.91;;;16.39;63.60
9746;BME280;4912;50.836;12.958;2023-04-01T13:44:49;96308.44;;;15.74;66.20
9746;BME280;4912;50.836;12.958;2023-04-01T13:47:47;96309.53;;;15.58;70.09
9746;BME280;4912;50.836;12.958;2023-04-01T13:51:18;96311.22;;;15.48;71.71
9746;BME280;4912;50.836;12.958;2023-04-01T13:57:52;96312.59;;;14.89;67.39
9746;BME280;4912;50.836;12.958;2023-04-01T14:00:48;96310.47;;;15.21;68.02
9746;BME280;4912;50.836;12.958;2023-04-01T14:03:30;96314.25;;;15.37;65.46
9746;BME280;4912;50.836;12.958;2023-04-01T14:06:18;96308.63;;;14.84;67.85
9746;BME280;4912;50.836;12.958;2023-04-01T14:12:19;96308.84;;;14.41;69.81
9746;BME280;4912;50.836;12.958;2023-04-01T14:18:30;96326.72;;;13.52;72.57
9746;BME280;4912;50.836;12.958;2023-04-01T14:21:29;96329.78;;;13.30;75.67
9746;BME280;4912;50.836;12.958;2023-04-01T14:27:35;96325.66;;;13.12;81.12
9746;BME280;4912;50.836;12.958;2023-04-01T14:30:20;96332.22;;;13.09;82.83
9746;BME280;4912;50.836;12.958;2023-04-01T14:33:09;96323.59;;;13.18;81.90
9746;BME280;4912;50.836;12.958;2023-04-01T14:35:59;96331.25;;;13.06;81.78
9746;BME280;4912;50.836;12.958;2023-04-01T14:38:59;96325.88;;;13.14;83.31
9746;BME280;4912;50.836;12.958;2023-04-01T14:41:42;96328.81;;;13.46;81.27
9746;BME280;4912;50.836;12.958;2023-04-01T14:44:27;96331.03;;;13.29;78.80
9746;BME280;4912;50.836;12.958;2023-04-01T14:47:41;96340.63;;;13.28;80.34
9746;BME280;4912;50.836;12.958;2023-04-01T14:50:16;96337.34;;;13.29;80.14
9746;BME280;4912;50.836;12.958;2023-04-01T14:52:57;96338.09;;;13.30;77.81
9746;BME280;4912;50.836;12.958;2023-04-01T14:55:48;96330.91;;;13.40;78.74
9746;BME280;4912;50.836;12.958;2023-04-01T14:58:22;96338.84;;;13.55;78.97
9746;BME280;4912;50.836;12.958;2023-04-01T15:01:02;96347.25;;;13.68;78.11
9746;BME280;4912;50.836;12.958;2023-04-01T15:03:50;96335.09;;;13.71;77.15
9746;BME280;4912;50.836;12.958;2023-04-01T15:06:48;96339.72;;;13.63;74.95
9746;BME280;4912;50.836;12.958;2023-04-01T15:09:30;96338.44;;;13.45;75.99
9746;BME280;4912;50.836;12.958;2023-04-01T15:12:18;96340.50;;;13.39;76.82
9746;BME280;4912;50.836;12.958;2023-04-01T15:15:11;96344.41;;;13.30;74.76
9746;BME280;4912;50.836;12.958;2023-04-01T15:18:02;96344.31;;;13.11;75.28
9746;BME280;4912;50.836;12.958;2023-04-01T15:21:06;96344.88;;;13.34;77.30
9746;BME280;4912;50.836;12.958;2023-04-01T15:23:52;96338.47;;;13.64;78.27
9746;BME280;4912;50.836;12.958;2023-04-01T15:26:52;96340.28;;;13.80;75.71
9746;BME280;4912;50.836;12.958;2023-04-01T15:29:57;96344.78;;;13.83;75.49
9746;BME280;4912;50.836;12.958;2023-04-01T15:32:56;96343.09;;;13.56;75.92
9746;BME280;4912;50.836;12.958;2023-04-01T15:35:41;96342.31;;;13.36;77.92
9746;BME280;4912;50.836;12.958;2023-04-01T15:38:23;96346.56;;;13.62;78.28
9746;BME280;4912;50.836;12.958;2023-04-01T15:41:07;96341.41;;;14.09;75.80
9746;BME280;4912;50.836;12.958;2023-04-01T15:43:48;96348.63;;;14.68;72.83
9746;BME280;4912;50.836;12.958;2023-04-01T15:49:32;96349.88;;;14.54;69.75
9746;BME280;4912;50.836;12.958;2023-04-01T15:52:12;96353.34;;;14.04;70.48
9746;BME280;4912;50.836;12.958;2023-04-01T15:55:12;96352.91;;;14.18;71.63
9746;BME280;4912;50.836;12.958;2023-04-01T15:58:02;96357.03;;;14.30;71.44
9746;BME280;4912;50.836;12.958;2023-04-01T16:00:51;96354.94;;;13.99;70.73
9746;BME280;4912;50.836;12.958;2023-04-01T16:03:35;96350.78;;;13.87;70.02
9746;BME280;4912;50.836;12.958;2023-04-01T16:06:17;96360.19;;;13.65;69.76
9746;BME280;4912;50.836;12.958;2023-04-01T16:12:08;96357.13;;;13.20;70.47